createdAt,value
2019-02-16T00:00:55.691Z,101702.18
2019-02-16T00:03:31.564Z,101699.56
2019-02-16T00:06:04.214Z,101697.41
2019-02-16T00:08:35.871Z,101696.12
2019-02-16T00:11:09.048Z,101695.69
2019-02-16T00:13:41.330Z,101696.97
2019-02-16T00:16:13.196Z,101695.60
2019-02-16T00:18:44.770Z,101691.20
2019-02-16T00:21:17.120Z,101690.30
2019-02-16T00:23:48.745Z,101691.55
2019-02-16T00:26:20.897Z,101693.63
2019-02-16T00:28:52.585Z,101688.41
2019-02-16T00:31:24.242Z,101695.73
2019-02-16T00:34:01.305Z,101699.13
2019-02-16T00:36:33.808Z,101694.34
2019-02-16T00:39:06.184Z,101695.63
2019-02-16T00:41:37.798Z,101694.33
2019-02-16T00:44:12.128Z,101689.51
2019-02-16T00:46:43.719Z,101696.80
2019-02-16T00:49:15.392Z,101699.35
2019-02-16T00:51:48.874Z,101698.40
2019-02-16T00:54:20.500Z,101696.66
2019-02-16T00:56:53.394Z,101700.56
2019-02-16T00:59:25.143Z,101694.91
2019-02-16T01:01:57.233Z,101696.16
2019-02-16T01:04:33.814Z,101693.53
2019-02-16T01:07:05.872Z,101694.80
2019-02-16T01:09:37.508Z,101690.50
2019-02-16T01:12:09.193Z,101694.84
2019-02-16T01:14:40.813Z,101695.36
2019-02-16T01:17:12.496Z,101691.92
2019-02-16T01:19:44.190Z,101696.67
2019-02-16T01:22:16.368Z,101691.48
2019-02-16T01:24:48.240Z,101685.40
2019-02-16T01:27:19.991Z,101686.62
2019-02-16T01:29:53.237Z,101686.12
2019-02-16T01:32:24.831Z,101681.81
2019-02-16T01:34:57.793Z,101690.02
2019-02-16T01:37:34.511Z,101683.50
2019-02-16T01:40:10.338Z,101689.97
2019-02-16T01:42:42.851Z,101692.98
2019-02-16T01:45:15.637Z,101688.67
2019-02-16T01:47:47.390Z,101691.67
2019-02-16T01:50:20.106Z,101695.09
2019-02-16T01:52:51.725Z,101699.73
2019-02-16T01:55:24.013Z,101700.14
2019-02-16T01:57:55.679Z,101692.29
2019-02-16T02:00:28.006Z,101693.99
2019-02-16T02:02:59.633Z,101694.42
2019-02-16T02:05:31.261Z,101697.00
2019-02-16T02:08:02.875Z,101699.17
2019-02-16T02:10:35.563Z,101701.77
2019-02-16T02:13:09.518Z,101703.53
2019-02-16T02:15:41.115Z,101700.52
2019-02-16T02:18:13.003Z,101697.48
2019-02-16T02:20:44.987Z,101698.30
2019-02-16T02:23:16.559Z,101702.59
2019-02-16T02:25:49.042Z,101702.95
2019-02-16T02:28:20.662Z,101699.41
2019-02-16T02:30:52.656Z,101696.77
2019-02-16T02:33:24.294Z,101694.55
2019-02-16T02:35:55.898Z,101688.50
2019-02-16T02:38:27.645Z,101684.61
2019-02-16T02:41:00.067Z,101685.47
2019-02-16T02:43:34.792Z,101682.94
2019-02-16T02:46:06.499Z,101684.25
2019-02-16T02:48:38.100Z,101682.98
2019-02-16T02:51:09.721Z,101689.04
2019-02-16T02:53:41.344Z,101680.41
2019-02-16T02:56:13.811Z,101677.87
2019-02-16T02:58:45.395Z,101677.02
2019-02-16T03:01:17.615Z,101676.59
2019-02-16T03:03:49.418Z,101673.56
2019-02-16T03:06:22.106Z,101682.62
2019-02-16T03:08:53.759Z,101683.92
2019-02-16T03:11:26.098Z,101688.19
2019-02-16T03:13:58.416Z,101685.98
2019-02-16T03:16:30.168Z,101681.16
2019-02-16T03:19:01.855Z,101673.36
2019-02-16T03:21:33.480Z,101683.77
2019-02-16T03:24:05.080Z,101675.93
2019-02-16T03:27:13.314Z,101674.56
2019-02-16T03:30:23.240Z,101672.30
2019-02-16T03:33:22.426Z,101667.80
2019-02-16T03:36:50.726Z,101668.53
2019-02-16T03:39:29.919Z,101673.15
2019-02-16T03:42:01.807Z,101676.88
2019-02-16T03:44:33.411Z,101678.15
2019-02-16T03:47:05.686Z,101682.03
2019-02-16T03:49:37.269Z,101688.50
2019-02-16T03:52:13.750Z,101691.09
2019-02-16T03:54:42.266Z,101689.34
2019-02-16T03:57:14.299Z,101692.39
2019-02-16T03:59:46.934Z,101692.81
2019-02-16T04:02:18.634Z,101686.81
2019-02-16T04:04:50.930Z,101684.29
2019-02-16T04:07:23.733Z,101682.21
2019-02-16T04:09:55.453Z,101688.30
2019-02-16T04:12:27.793Z,101691.36
2019-02-16T04:14:59.400Z,101691.39
2019-02-16T04:17:30.976Z,101684.09
2019-02-16T04:20:03.219Z,101688.02
2019-02-16T04:22:34.817Z,101688.41
2019-02-16T04:25:08.000Z,101693.92
2019-02-16T04:27:39.647Z,101700.61
2019-02-16T04:30:11.338Z,101701.30
2019-02-16T04:32:42.958Z,101705.86
2019-02-16T04:35:15.625Z,101702.71
2019-02-16T04:37:47.215Z,101701.80
2019-02-16T04:40:18.822Z,101696.66
2019-02-16T04:42:50.563Z,101704.91
2019-02-16T04:45:22.178Z,101700.68
2019-02-16T04:47:53.768Z,101700.71
2019-02-16T04:50:26.057Z,101703.27
2019-02-16T04:52:59.603Z,101694.20
2019-02-16T04:55:31.214Z,101690.39
2019-02-16T04:58:02.871Z,101689.58
2019-02-16T05:00:34.511Z,101688.73
2019-02-16T05:03:06.231Z,101690.48
2019-02-16T05:05:38.563Z,101690.13
2019-02-16T05:08:10.194Z,101685.82
2019-02-16T05:10:41.828Z,101688.38
2019-02-16T05:13:14.288Z,101682.30
2019-02-16T05:15:45.874Z,101679.20
2019-02-16T05:18:17.575Z,101679.97
2019-02-16T05:20:50.013Z,101689.39
2019-02-16T05:23:21.660Z,101686.21
2019-02-16T05:25:53.296Z,101685.16
2019-02-16T05:28:24.956Z,101680.27
2019-02-16T05:30:56.590Z,101680.62
2019-02-16T05:33:28.355Z,101679.33
2019-02-16T05:36:00.577Z,101680.62
2019-02-16T05:38:32.446Z,101678.03
2019-02-16T05:41:04.088Z,101676.73
2019-02-16T05:43:35.756Z,101681.42
2019-02-16T05:46:07.788Z,101677.50
2019-02-16T05:48:39.398Z,101682.14
2019-02-16T05:51:13.225Z,101680.36
2019-02-16T05:53:44.933Z,101681.66
2019-02-16T05:56:16.719Z,101679.07
2019-02-16T05:58:48.528Z,101675.23
2019-02-16T06:01:20.270Z,101678.61
2019-02-16T06:03:51.925Z,101684.92
2019-02-16T06:06:24.331Z,101686.52
2019-02-16T06:08:56.190Z,101694.12
2019-02-16T06:11:27.921Z,101691.00
2019-02-16T06:14:00.367Z,101690.20
2019-02-16T06:16:31.977Z,101686.37
2019-02-16T06:19:03.748Z,101694.66
2019-02-16T06:21:35.377Z,101697.39
2019-02-16T06:24:07.491Z,101702.23
2019-02-16T06:26:39.307Z,101704.09
2019-02-16T06:29:10.933Z,101700.70
2019-02-16T06:31:42.677Z,101701.62
2019-02-16T06:34:14.439Z,101699.95
2019-02-16T06:36:46.141Z,101701.73
2019-02-16T06:39:19.599Z,101704.80
2019-02-16T06:41:51.417Z,101703.13
2019-02-16T06:44:23.198Z,101707.05
2019-02-16T06:46:54.911Z,101704.80
2019-02-16T06:49:28.030Z,101709.41
2019-02-16T06:51:59.795Z,101718.36
2019-02-16T06:54:32.056Z,101718.69
2019-02-16T06:57:21.640Z,101722.03
2019-02-16T06:59:53.579Z,101726.17
2019-02-16T07:02:26.570Z,101732.89
2019-02-16T07:04:58.228Z,101741.86
2019-02-16T07:07:30.117Z,101745.73
2019-02-16T07:10:02.673Z,101747.57
2019-02-16T07:12:34.303Z,101746.31
2019-02-16T07:15:07.128Z,101738.56
2019-02-16T07:18:06.701Z,101736.85
2019-02-16T07:20:38.532Z,101742.48
2019-02-16T07:23:10.158Z,101744.23
2019-02-16T07:25:42.516Z,101751.19
2019-02-16T07:28:14.206Z,101752.98
2019-02-16T07:30:45.926Z,101752.11
2019-02-16T07:33:17.539Z,101757.28
2019-02-16T07:35:49.259Z,101752.98
2019-02-16T07:38:21.860Z,101761.20
2019-02-16T07:40:54.204Z,101767.28
2019-02-16T07:43:56.833Z,101762.16
2019-02-16T07:46:40.919Z,101758.81
2019-02-16T07:49:20.128Z,101761.10
2019-02-16T07:51:56.799Z,101756.50
2019-02-16T07:54:50.478Z,101756.31
2019-02-16T07:57:37.725Z,101758.25
2019-02-16T08:00:18.058Z,101754.16
2019-02-16T08:03:03.075Z,101756.95
2019-02-16T08:05:42.584Z,101758.84
2019-02-16T08:08:41.188Z,101757.70
2019-02-16T08:11:44.638Z,101757.41
2019-02-16T08:14:44.423Z,101762.81
2019-02-16T08:17:30.710Z,101760.03
2019-02-16T08:20:24.220Z,101764.59
2019-02-16T08:23:21.155Z,101764.75
2019-02-16T08:26:17.714Z,101767.89
2019-02-16T08:29:21.606Z,101761.14
2019-02-16T08:32:21.254Z,101759.97
2019-02-16T08:35:25.871Z,101755.73
2019-02-16T08:38:10.407Z,101756.72
2019-02-16T08:40:55.759Z,101746.44
2019-02-16T08:43:47.358Z,101749.56
2019-02-16T08:46:41.372Z,101744.91
2019-02-16T08:49:33.373Z,101746.74
2019-02-16T08:52:26.669Z,101740.33
2019-02-16T08:55:20.415Z,101736.07
2019-02-16T08:58:19.872Z,101744.84
2019-02-16T09:01:07.507Z,101739.70
2019-02-16T09:03:54.488Z,101737.63
2019-02-16T09:06:57.669Z,101731.20
2019-02-16T09:09:51.207Z,101729.06
2019-02-16T09:12:40.682Z,101726.94
2019-02-16T09:15:28.763Z,101725.67
2019-02-16T09:18:24.440Z,101718.78
2019-02-16T09:21:15.046Z,101715.77
2019-02-16T09:24:06.944Z,101709.72
2019-02-16T09:27:10.676Z,101708.85
2019-02-16T09:30:04.505Z,101711.08
2019-02-16T09:32:43.711Z,101713.67
2019-02-16T09:35:43.897Z,101712.38
2019-02-16T09:38:23.128Z,101711.92
2019-02-16T09:41:23.762Z,101711.03
2019-02-16T09:44:20.205Z,101702.32
2019-02-16T09:47:16.887Z,101706.23
2019-02-16T09:50:16.521Z,101707.52
2019-02-16T09:53:05.890Z,101706.17
2019-02-16T09:56:00.030Z,101698.31
2019-02-16T09:58:50.567Z,101694.80
2019-02-16T10:01:40.119Z,101698.63
2019-02-16T10:04:19.460Z,101696.41
2019-02-16T10:07:11.405Z,101694.17
2019-02-16T10:10:06.086Z,101699.80
2019-02-16T10:12:51.671Z,101699.73
2019-02-16T10:15:45.371Z,101699.27
2019-02-16T10:18:47.551Z,101700.09
2019-02-16T10:21:43.096Z,101703.08
2019-02-16T10:24:36.770Z,101709.56
2019-02-16T10:27:21.791Z,101701.28
2019-02-16T10:30:11.076Z,101706.00
2019-02-16T10:33:12.704Z,101706.39
2019-02-16T10:36:12.504Z,101703.25
2019-02-16T10:39:30.646Z,101699.72
2019-02-16T10:42:22.464Z,101701.85
2019-02-16T10:45:16.547Z,101703.11
2019-02-16T10:48:09.816Z,101698.66
2019-02-16T10:50:53.959Z,101695.11
2019-02-16T10:53:34.135Z,101691.56
2019-02-16T10:56:27.911Z,101689.72
2019-02-16T10:59:25.106Z,101690.97
2019-02-16T11:02:07.389Z,101684.37
2019-02-16T11:04:56.839Z,101674.28
2019-02-16T11:07:47.889Z,101684.24
2019-02-16T11:10:39.948Z,101669.74
2019-02-16T11:13:29.579Z,101660.50
2019-02-16T11:16:21.359Z,101665.18
2019-02-16T11:19:20.892Z,101667.71
2019-02-16T11:22:11.233Z,101657.61
2019-02-16T11:25:01.779Z,101651.42
2019-02-16T11:27:52.398Z,101652.59
2019-02-16T11:30:43.039Z,101657.72
2019-02-16T11:33:25.533Z,101657.18
2019-02-16T11:36:18.924Z,101655.30
2019-02-16T11:39:10.259Z,101649.08
2019-02-16T11:42:16.131Z,101643.27
2019-02-16T11:45:08.793Z,101638.80
2019-02-16T11:48:03.042Z,101636.96
2019-02-16T11:50:54.560Z,101638.17
2019-02-16T11:53:33.652Z,101634.14
2019-02-16T11:56:22.221Z,101627.93
2019-02-16T11:59:15.909Z,101626.04
2019-02-16T12:02:12.403Z,101628.57
2019-02-16T12:04:52.658Z,101619.36
2019-02-16T12:07:47.801Z,101612.29
2019-02-16T12:10:37.148Z,101611.30
2019-02-16T12:13:20.557Z,101603.76
2019-02-16T12:16:04.397Z,101598.42
2019-02-16T12:18:45.168Z,101594.81
2019-02-16T12:21:34.380Z,101590.31
2019-02-16T12:24:23.753Z,101591.95
2019-02-16T12:27:20.321Z,101581.75
2019-02-16T12:30:11.609Z,101575.98
2019-02-16T12:32:54.176Z,101574.52
2019-02-16T12:35:50.710Z,101576.59
2019-02-16T12:38:40.468Z,101573.45
2019-02-16T12:41:36.653Z,101570.28
2019-02-16T12:44:42.871Z,101566.21
2019-02-16T12:47:36.753Z,101563.90
2019-02-16T12:50:33.254Z,101562.87
2019-02-16T12:53:22.902Z,101546.09
2019-02-16T12:56:24.424Z,101540.21
2019-02-16T12:59:16.030Z,101542.25
2019-02-16T13:02:13.924Z,101533.81
2019-02-16T13:04:56.411Z,101530.14
2019-02-16T13:07:48.735Z,101526.88
2019-02-16T13:10:45.515Z,101514.98
2019-02-16T13:13:31.618Z,101514.79
2019-02-16T13:16:10.472Z,101511.59
2019-02-16T13:18:59.909Z,101511.50
2019-02-16T13:21:53.311Z,101511.79
2019-02-16T13:24:40.850Z,101513.36
2019-02-16T13:27:21.105Z,101511.09
2019-02-16T13:30:04.370Z,101507.47
2019-02-16T13:33:10.509Z,101505.13
2019-02-16T13:36:04.704Z,101498.00
2019-02-16T13:38:55.574Z,101495.69
2019-02-16T13:41:36.785Z,101489.91
2019-02-16T13:44:20.450Z,101490.61
2019-02-16T13:47:23.546Z,101486.56
2019-02-16T13:50:02.922Z,101483.35
2019-02-16T13:52:53.278Z,101485.43
2019-02-16T14:01:32.038Z,101478.05
2019-02-16T14:04:30.808Z,101483.17
2019-02-16T14:07:12.667Z,101474.69
2019-02-16T14:10:01.800Z,101474.09
2019-02-16T14:12:51.179Z,101475.75
2019-02-16T14:15:54.610Z,101464.70
2019-02-16T14:18:26.369Z,101465.01
2019-02-16T14:20:58.258Z,101464.41
2019-02-16T14:23:29.911Z,101469.98
2019-02-16T14:31:04.281Z,101468.63
2019-02-16T14:33:36.291Z,101467.23
2019-02-16T14:36:09.623Z,101461.86
2019-02-16T14:38:50.301Z,101465.70
2019-02-16T14:41:21.998Z,101460.34
2019-02-16T14:43:53.851Z,101457.11
2019-02-16T14:46:26.712Z,101459.63
2019-02-16T14:48:59.729Z,101458.68
2019-02-16T14:51:31.504Z,101458.56
2019-02-16T14:54:03.218Z,101454.13
2019-02-16T14:56:34.943Z,101449.67
2019-02-16T14:59:06.584Z,101447.42
2019-02-16T15:01:38.351Z,101444.28
2019-02-16T15:04:10.119Z,101437.13
2019-02-16T15:06:43.090Z,101435.35
2019-02-16T15:09:14.833Z,101441.45
2019-02-16T15:11:46.558Z,101436.63
2019-02-16T15:14:18.236Z,101437.87
2019-02-16T15:16:50.810Z,101436.09
2019-02-16T15:19:22.666Z,101432.10
2019-02-16T15:21:54.895Z,101434.70
2019-02-16T15:24:26.578Z,101429.80
2019-02-16T15:26:59.368Z,101427.66
2019-02-16T15:29:31.293Z,101435.56
2019-02-16T15:32:03.517Z,101429.87
2019-02-16T15:34:35.465Z,101427.28
2019-02-16T15:37:07.700Z,101427.73
2019-02-16T15:39:39.589Z,101427.73
2019-02-16T15:42:11.515Z,101423.49
2019-02-16T15:44:43.225Z,101423.55
2019-02-16T15:47:15.383Z,101421.94
2019-02-16T15:49:47.031Z,101422.91
2019-02-16T15:52:18.944Z,101424.39
2019-02-16T15:54:50.854Z,101429.75
2019-02-16T15:57:25.694Z,101417.59
2019-02-16T15:59:57.609Z,101411.17
2019-02-16T16:02:29.274Z,101416.97
2019-02-16T16:05:01.746Z,101417.08
2019-02-16T16:07:33.529Z,101418.55
2019-02-16T16:10:27.197Z,101408.97
2019-02-16T16:13:07.457Z,101406.03
2019-02-16T16:15:57.494Z,101405.78
2019-02-16T16:18:44.348Z,101406.80
2019-02-16T16:21:33.486Z,101410.44
2019-02-16T16:24:42.439Z,101409.31
2019-02-16T16:27:38.901Z,101412.09
2019-02-16T16:30:28.444Z,101407.06
2019-02-16T16:33:24.823Z,101407.20
2019-02-16T16:36:21.682Z,101399.45
2019-02-16T16:39:10.507Z,101398.29
2019-02-16T16:42:10.518Z,101399.68
2019-02-16T16:44:58.391Z,101394.53
2019-02-16T16:48:01.039Z,101402.11
2019-02-16T16:50:53.274Z,101403.12
2019-02-16T16:53:47.677Z,101409.80
2019-02-16T16:56:30.549Z,101409.91
2019-02-16T16:59:21.111Z,101402.61
2019-02-16T17:02:23.912Z,101409.74
2019-02-16T17:05:03.828Z,101414.31
2019-02-16T17:07:55.242Z,101405.34
2019-02-16T17:10:45.810Z,101412.09
2019-02-16T17:13:51.539Z,101413.98
2019-02-16T17:16:37.794Z,101411.52
2019-02-16T17:19:28.729Z,101413.03
2019-02-16T17:22:18.161Z,101412.53
2019-02-16T17:25:05.345Z,101421.75
2019-02-16T17:27:50.709Z,101422.66
2019-02-16T17:30:34.972Z,101418.59
2019-02-16T17:33:24.614Z,101416.69
2019-02-16T17:36:21.128Z,101415.94
2019-02-16T17:39:20.506Z,101423.50
2019-02-16T17:42:10.234Z,101430.37
2019-02-16T17:44:53.081Z,101432.38
2019-02-16T17:47:41.781Z,101426.95
2019-02-16T17:50:32.351Z,101440.85
2019-02-16T17:53:23.001Z,101442.08
2019-02-16T17:56:25.818Z,101444.13
2019-02-16T17:59:19.465Z,101441.30
2019-02-16T18:01:59.633Z,101448.48
2019-02-16T18:05:08.721Z,101448.16
2019-02-16T18:07:51.208Z,101453.16
2019-02-16T18:10:50.660Z,101460.44
2019-02-16T18:13:47.599Z,101461.11
2019-02-16T18:16:47.940Z,101461.73
2019-02-16T18:19:34.033Z,101457.03
2019-02-16T18:22:30.466Z,101454.48
2019-02-16T18:25:19.586Z,101456.22
2019-02-16T18:28:12.685Z,101459.25
2019-02-16T18:31:07.962Z,101454.84
2019-02-16T18:33:58.522Z,101457.53
2019-02-16T18:36:45.171Z,101454.93
2019-02-16T18:39:44.619Z,101455.95
2019-02-16T18:42:33.935Z,101448.77
2019-02-16T18:45:21.683Z,101444.67
2019-02-16T18:48:07.162Z,101447.45
2019-02-16T18:51:05.001Z,101448.02
2019-02-16T18:54:01.381Z,101440.63
2019-02-16T18:56:51.422Z,101436.34
2019-02-16T18:59:51.242Z,101434.61
2019-02-16T19:02:35.825Z,101425.94
2019-02-16T19:05:22.897Z,101433.30
2019-02-16T19:08:12.360Z,101431.98
2019-02-16T19:11:10.146Z,101432.84
2019-02-16T19:13:59.593Z,101428.12
2019-02-16T19:16:51.256Z,101433.08
2019-02-16T19:19:40.529Z,101429.84
2019-02-16T19:22:21.765Z,101433.12
2019-02-16T19:25:12.447Z,101432.38
2019-02-16T19:28:00.165Z,101425.59
2019-02-16T19:30:54.600Z,101435.33
2019-02-16T19:33:43.890Z,101437.70
2019-02-16T19:36:26.931Z,101434.79
2019-02-16T19:39:32.784Z,101427.41
2019-02-16T19:42:26.150Z,101424.36
2019-02-16T19:45:15.422Z,101435.31
2019-02-16T19:48:24.003Z,101424.49
2019-02-16T19:51:17.583Z,101422.31
2019-02-16T19:54:05.908Z,101422.66
2019-02-16T19:56:59.229Z,101422.66
2019-02-16T19:59:43.134Z,101421.02
2019-02-16T20:02:43.126Z,101422.40
2019-02-16T20:05:26.422Z,101419.44
2019-02-16T20:08:11.385Z,101414.73
2019-02-16T20:10:50.028Z,101415.20
2019-02-16T20:13:40.650Z,101413.93
2019-02-16T20:16:41.171Z,101414.36
2019-02-16T20:19:36.387Z,101420.88
2019-02-16T20:22:26.922Z,101420.05
2019-02-16T20:25:11.700Z,101423.52
2019-02-16T20:28:05.294Z,101422.25
2019-02-16T20:30:54.708Z,101428.77
2019-02-16T20:36:39.357Z,101432.73
2019-02-16T20:39:28.855Z,101431.05
2019-02-16T20:42:20.157Z,101426.70
2019-02-16T20:45:11.057Z,101431.88
2019-02-16T20:48:16.932Z,101432.78
2019-02-16T20:51:07.473Z,101435.84
2019-02-16T20:53:58.105Z,101441.92
2019-02-16T20:56:41.382Z,101428.91
2019-02-16T20:59:32.485Z,101431.91
2019-02-16T21:02:26.580Z,101438.40
2019-02-16T21:05:17.535Z,101435.36
2019-02-16T21:08:10.270Z,101437.53
2019-02-16T21:10:49.745Z,101433.63
2019-02-16T21:13:53.872Z,101427.11
2019-02-16T21:17:01.200Z,101427.95
2019-02-16T21:19:39.955Z,101424.91
2019-02-16T21:22:21.708Z,101424.48
2019-02-16T21:25:12.324Z,101418.43
2019-02-16T21:28:03.002Z,101413.25
2019-02-16T21:30:44.542Z,101417.59
2019-02-16T21:33:38.296Z,101415.47
2019-02-16T21:36:31.639Z,101418.49
2019-02-16T21:39:25.053Z,101410.73
2019-02-16T21:42:03.108Z,101414.66
2019-02-16T21:44:55.162Z,101417.26
2019-02-16T21:47:45.914Z,101414.66
2019-02-16T21:50:39.779Z,101410.37
2019-02-16T21:53:33.521Z,101410.84
2019-02-16T21:56:28.021Z,101412.18
2019-02-16T21:59:21.582Z,101416.96
2019-02-16T22:02:10.823Z,101413.07
2019-02-16T22:04:52.497Z,101412.66
2019-02-16T22:07:48.408Z,101410.47
2019-02-16T22:10:38.609Z,101405.29
2019-02-16T22:13:10.352Z,101400.94
2019-02-16T22:15:44.071Z,101399.64
2019-02-16T22:18:16.081Z,101408.32
2019-02-16T22:20:48.126Z,101400.54
2019-02-16T22:23:19.849Z,101410.06
2019-02-16T22:25:52.052Z,101405.75
2019-02-16T22:28:30.889Z,101408.77
2019-02-16T22:30:57.673Z,101406.59
2019-02-16T22:33:35.403Z,101406.17
2019-02-16T22:36:07.679Z,101401.84
2019-02-16T22:38:43.880Z,101403.14
2019-02-16T22:41:16.262Z,101410.06
2019-02-16T22:43:48.380Z,101406.59
2019-02-16T22:46:20.157Z,101401.41
2019-02-16T22:48:53.473Z,101402.26
2019-02-16T22:51:25.196Z,101400.12
2019-02-16T22:53:56.860Z,101394.05
2019-02-16T22:56:28.545Z,101394.05
2019-02-16T22:59:00.248Z,101397.96
2019-02-16T23:01:32.425Z,101395.78
2019-02-16T23:04:04.145Z,101387.11
2019-02-16T23:06:35.860Z,101388.86
2019-02-16T23:09:21.282Z,101387.97
2019-02-16T23:11:52.977Z,101388.84
2019-02-16T23:14:24.813Z,101390.14
2019-02-16T23:16:56.557Z,101385.39
2019-02-16T23:19:28.206Z,101392.72
2019-02-16T23:21:59.956Z,101393.59
2019-02-16T23:24:31.668Z,101397.03
2019-02-16T23:27:03.724Z,101403.91
2019-02-16T23:29:35.778Z,101410.80
2019-02-16T23:32:07.630Z,101411.20
2019-02-16T23:34:39.226Z,101402.09
2019-02-16T23:37:10.952Z,101396.87
2019-02-16T23:39:42.580Z,101408.13
2019-02-16T23:42:14.319Z,101402.11
2019-02-16T23:44:46.075Z,101407.70
2019-02-16T23:47:17.961Z,101405.53
2019-02-16T23:49:49.581Z,101413.30
2019-02-16T23:52:21.223Z,101413.27
2019-02-16T23:54:53.154Z,101411.92
2019-02-16T23:57:24.846Z,101413.13
2019-02-16T23:59:56.522Z,101418.27
